Time;durP1;ratioP1;P1;durP2;ratioP2;P2;SDS_P1;SDS_P2;PMS_P1;PMS_P2;Temp;Humidity;BMP_temperature;BMP_pressure;BME280_temperature;BME280_humidity;BME280_pressure;Samples;Min_cycle;Max_cycle;Signal;HPM_P1;HPM_P2
2022/06/19 00:00:15;;;;;;;6.13;2.15;;;;;;;-142.64;100.00;58178.75;5067079;28;20111;-58
2022/06/19 00:02:41;;;;;;;8.90;1.65;;;;;;;-142.64;100.00;58178.75;5055884;28;20098;-56
2022/06/19 00:05:07;;;;;;;9.95;2.25;;;;;;;-142.64;100.00;58178.75;5065940;28;20073;-58
2022/06/19 00:07:32;;;;;;;9.55;2.85;;;;;;;-142.64;100.00;58178.75;5054467;28;20446;-57
2022/06/19 00:09:57;;;;;;;5.65;1.58;;;;;;;-142.64;100.00;58178.75;5062414;28;20036;-58
2022/06/19 00:12:23;;;;;;;5.50;2.15;;;;;;;-142.64;100.00;58178.75;5065065;28;20452;-56
2022/06/19 00:14:48;;;;;;;8.68;1.63;;;;;;;-142.64;100.00;58178.75;5050836;28;20076;-58
2022/06/19 00:17:14;;;;;;;11.90;2.03;;;;;;;-142.64;100.00;58178.75;5065180;28;20054;-55
2022/06/19 00:19:39;;;;;;;9.00;2.03;;;;;;;-142.64;100.00;58178.75;5055876;28;20037;-58
2022/06/19 00:22:05;;;;;;;5.78;2.00;;;;;;;-142.64;100.00;58178.75;5067341;28;20033;-54
2022/06/19 00:24:30;;;;;;;6.47;1.70;;;;;;;-142.64;100.00;58178.75;5060260;28;20033;-56
2022/06/19 00:26:56;;;;;;;8.57;1.85;;;;;;;-142.64;100.00;58178.75;5063623;28;20085;-54
2022/06/19 00:29:22;;;;;;;5.35;1.38;;;;;;;-142.64;100.00;58178.75;5056541;28;20032;-59
2022/06/19 00:31:47;;;;;;;7.35;1.73;;;;;;;-142.64;100.00;58178.75;5068946;28;20032;-58
2022/06/19 00:34:12;;;;;;;8.25;1.90;;;;;;;-142.64;100.00;58178.75;5056840;28;20036;-56
2022/06/19 00:36:37;;;;;;;7.72;1.75;;;;;;;-142.64;100.00;58178.75;5062675;28;20431;-56
2022/06/19 00:39:03;;;;;;;5.18;1.83;;;;;;;-142.64;100.00;58178.75;5064871;28;20028;-55
2022/06/19 00:41:34;;;;;;;6.38;1.50;;;;;;;-142.64;100.00;58178.75;5055780;28;20087;-58
2022/06/19 00:44:01;;;;;;;7.88;2.28;;;;;;;-142.64;100.00;58178.75;5039890;28;20037;-56
2022/06/19 00:46:48;;;;;;;7.72;1.63;;;;;;;-142.64;100.00;58178.75;5062734;28;20104;-57
2022/06/19 00:49:18;;;;;;;7.90;1.48;;;;;;;-142.64;100.00;58178.75;5066173;28;20111;-56
2022/06/19 00:51:44;;;;;;;9.60;1.73;;;;;;;-142.64;100.00;58178.75;5055153;28;20035;-57
2022/06/19 00:54:13;;;;;;;6.65;1.88;;;;;;;-142.64;100.00;58178.75;5065211;28;20337;-58
2022/06/19 00:56:39;;;;;;;10.65;2.17;;;;;;;-142.64;100.00;58178.75;5059627;28;20062;-57
2022/06/19 00:59:05;;;;;;;4.45;1.55;;;;;;;-142.64;100.00;58178.75;5059102;28;20493;-58
2022/06/19 01:01:31;;;;;;;8.70;1.77;;;;;;;-142.64;100.00;58178.75;5068368;28;20055;-56
2022/06/19 01:04:02;;;;;;;5.60;1.55;;;;;;;-142.64;100.00;58178.75;5054191;28;20047;-57
2022/06/19 01:06:27;;;;;;;4.28;1.20;;;;;;;-142.64;100.00;58178.75;5063864;28;20280;-57
2022/06/19 01:08:55;;;;;;;6.88;1.80;;;;;;;-142.64;100.00;58178.75;5062986;28;20040;-59
2022/06/19 01:11:22;;;;;;;5.90;1.15;;;;;;;-142.64;100.00;58178.75;5055287;28;20066;-62
2022/06/19 01:13:48;;;;;;;6.13;1.38;;;;;;;-142.64;100.00;58178.75;5068052;28;20052;-57
2022/06/19 01:16:14;;;;;;;6.32;1.50;;;;;;;-142.64;100.00;58178.75;5056250;28;20028;-54
2022/06/19 01:18:40;;;;;;;6.57;1.58;;;;;;;-142.64;100.00;58178.75;5043860;28;20033;-56
2022/06/19 01:21:32;;;;;;;5.95;1.23;;;;;;;-142.64;100.00;58178.75;5063390;28;20123;-56
2022/06/19 01:24:33;;;;;;;13.13;1.58;;;;;;;-142.64;100.00;58178.75;5036145;28;20117;-60
2022/06/19 01:27:00;;;;;;;6.18;1.67;;;;;;;-142.64;100.00;58178.75;5059291;28;20078;-54
2022/06/19 01:29:31;;;;;;;7.47;1.80;;;;;;;-142.64;100.00;58178.75;5066218;28;20024;-57
2022/06/19 01:32:00;;;;;;;8.13;1.77;;;;;;;-142.64;100.00;58178.75;5038703;28;20024;-60
2022/06/19 01:34:36;;;;;;;6.50;2.03;;;;;;;-142.64;100.00;58178.75;5063672;28;20086;-55
2022/06/19 01:37:12;;;;;;;7.57;2.45;;;;;;;-142.64;100.00;58178.75;5051702;28;20527;-56
2022/06/19 01:39:41;;;;;;;8.75;2.25;;;;;;;-142.64;100.00;58178.75;5053493;28;20039;-57
2022/06/19 01:42:08;;;;;;;7.72;2.10;;;;;;;-142.64;100.00;58178.75;5059350;28;20025;-57
2022/06/19 01:44:33;;;;;;;8.75;2.15;;;;;;;-142.64;100.00;58178.75;5065530;28;20086;-57
2022/06/19 01:46:59;;;;;;;7.22;1.92;;;;;;;-142.64;100.00;58178.75;5067618;28;20032;-56
2022/06/19 01:49:24;;;;;;;9.52;2.70;;;;;;;-142.64;100.00;58178.75;5059589;28;20033;-56
2022/06/19 01:51:51;;;;;;;10.38;2.50;;;;;;;-142.64;100.00;58178.75;5067102;28;20043;-54
2022/06/19 01:54:23;;;;;;;11.65;2.13;;;;;;;-142.64;100.00;58178.75;5069081;28;20033;-57
2022/06/19 01:56:50;;;;;;;5.43;1.73;;;;;;;-142.64;100.00;58178.75;5065873;28;20527;-57
2022/06/19 01:59:16;;;;;;;9.32;1.92;;;;;;;-142.64;100.00;58178.75;5059318;28;20029;-56
2022/06/19 02:01:42;;;;;;;8.98;1.63;;;;;;;-142.64;100.00;58178.75;5071758;28;20048;-58
2022/06/19 02:04:08;;;;;;;8.43;2.53;;;;;;;-142.64;100.00;58178.75;5058968;28;20045;-56
2022/06/19 02:06:47;;;;;;;17.95;2.70;;;;;;;-142.64;100.00;58178.75;5065016;28;20391;-57
2022/06/19 02:09:15;;;;;;;9.85;2.20;;;;;;;-142.64;100.00;58178.75;5050981;28;20445;-55
2022/06/19 02:11:41;;;;;;;10.23;2.20;;;;;;;-142.64;100.00;58178.75;5057914;28;20468;-56
2022/06/19 02:14:07;;;;;;;13.77;2.28;;;;;;;-142.64;100.00;58178.75;5068410;28;20053;-57
2022/06/19 02:16:35;;;;;;;13.07;2.53;;;;;;;-142.64;100.00;58178.75;5045359;28;20045;-57
2022/06/19 02:19:01;;;;;;;11.80;2.80;;;;;;;-142.64;100.00;58178.75;5060984;28;20048;-59
2022/06/19 02:21:53;;;;;;;6.80;1.90;;;;;;;-142.64;100.00;58178.75;5071122;28;20459;-56
2022/06/19 02:24:21;;;;;;;9.32;1.98;;;;;;;-142.64;100.00;58178.75;5046369;28;20139;-57
2022/06/19 02:26:48;;;;;;;8.25;2.03;;;;;;;-142.64;100.00;58178.75;5073196;28;20027;-55
2022/06/19 02:29:16;;;;;;;10.40;2.08;;;;;;;-142.64;100.00;58178.75;5059221;28;20119;-57
2022/06/19 02:31:44;;;;;;;13.88;2.05;;;;;;;-142.64;100.00;58178.75;5070953;28;20060;-57
2022/06/19 02:34:37;;;;;;;11.50;2.17;;;;;;;-142.64;100.00;58178.75;5058470;28;20469;-57
2022/06/19 02:37:08;;;;;;;7.63;1.85;;;;;;;-142.64;100.00;58178.75;5059207;28;20132;-56
2022/06/19 02:39:56;;;;;;;8.30;2.45;;;;;;;-142.64;100.00;58178.75;5069261;28;20111;-55
2022/06/19 02:42:24;;;;;;;4.75;1.55;;;;;;;-142.64;100.00;58178.75;5061497;28;20040;-58
2022/06/19 02:44:58;;;;;;;5.70;1.60;;;;;;;-142.64;100.00;58178.75;5063367;28;20476;-56
2022/06/19 02:47:25;;;;;;;7.50;1.33;;;;;;;-142.64;100.00;58178.75;5069824;28;20028;-54
2022/06/19 02:49:51;;;;;;;15.65;2.65;;;;;;;-142.64;100.00;58178.75;5056101;28;20119;-59
2022/06/19 02:52:16;;;;;;;10.13;2.10;;;;;;;-142.64;100.00;58178.75;5066858;28;20448;-59
2022/06/19 02:54:42;;;;;;;7.68;1.42;;;;;;;-142.64;100.00;58178.75;5064168;28;20041;-57
2022/06/19 02:57:10;;;;;;;8.77;1.67;;;;;;;-142.64;100.00;58178.75;5067016;28;20376;-59
2022/06/19 02:59:36;;;;;;;12.07;2.38;;;;;;;-142.64;100.00;58178.75;5055798;28;20025;-58
2022/06/19 03:02:02;;;;;;;7.60;2.03;;;;;;;-142.64;100.00;58178.75;5069825;28;20086;-54
2022/06/19 03:04:35;;;;;;;10.35;2.10;;;;;;;-142.64;100.00;58178.75;5060410;28;20031;-57
2022/06/19 03:07:01;;;;;;;10.98;2.05;;;;;;;-142.64;100.00;58178.75;5060298;28;20079;-58
2022/06/19 03:09:27;;;;;;;6.97;1.70;;;;;;;-142.64;100.00;58178.75;5069784;28;20033;-59
2022/06/19 03:11:52;;;;;;;6.22;1.92;;;;;;;-142.64;100.00;58178.75;5055884;28;20078;-58
2022/06/19 03:14:17;;;;;;;12.57;2.00;;;;;;;-142.64;100.00;58178.75;5066045;28;20053;-57
2022/06/19 03:16:45;;;;;;;12.18;2.00;;;;;;;-142.64;100.00;58178.75;5063627;28;20399;-59
2022/06/19 03:19:10;;;;;;;8.45;1.77;;;;;;;-142.64;100.00;58178.75;5060037;28;20044;-58
2022/06/19 03:21:35;;;;;;;7.13;2.20;;;;;;;-142.64;100.00;58178.75;5070112;28;20041;-58
2022/06/19 03:24:01;;;;;;;8.48;1.95;;;;;;;-142.64;100.00;58178.75;5057719;28;20032;-57
2022/06/19 03:26:26;;;;;;;6.80;1.98;;;;;;;-142.64;100.00;58178.75;5065613;28;20040;-56
2022/06/19 03:28:53;;;;;;;8.75;1.63;;;;;;;-142.64;100.00;58178.75;5063315;28;20372;-60
2022/06/19 03:31:21;;;;;;;7.55;2.22;;;;;;;-142.64;100.00;58178.75;5057455;28;20533;-58
2022/06/19 03:33:47;;;;;;;9.77;2.10;;;;;;;-142.64;100.00;58178.75;5068730;28;20444;-57
2022/06/19 03:36:12;;;;;;;10.00;2.42;;;;;;;-142.64;100.00;58178.75;5057562;28;20283;-57
2022/06/19 03:38:37;;;;;;;13.45;2.33;;;;;;;-142.64;100.00;58178.75;5064120;28;20036;-58
2022/06/19 03:41:03;;;;;;;12.80;1.88;;;;;;;-142.64;100.00;58178.75;5065868;28;20068;-59
2022/06/19 03:43:28;;;;;;;7.95;1.67;;;;;;;-142.64;100.00;58178.75;5056906;28;20550;-59
2022/06/19 03:46:01;;;;;;;7.95;2.47;;;;;;;-142.64;100.00;58178.75;5051589;28;20040;-59
2022/06/19 03:48:26;;;;;;;8.30;2.50;;;;;;;-142.64;100.00;58178.75;5059523;28;20028;-59
2022/06/19 03:50:52;;;;;;;8.95;2.33;;;;;;;-142.64;100.00;58178.75;5061656;28;20033;-59
2022/06/19 03:53:17;;;;;;;12.05;3.00;;;;;;;-142.64;100.00;58178.75;5067541;28;20422;-60
2022/06/19 03:55:43;;;;;;;12.00;2.80;;;;;;;-142.64;100.00;58178.75;5056015;28;20033;-56
2022/06/19 03:58:08;;;;;;;7.13;2.00;;;;;;;-142.64;100.00;58178.75;5066162;28;20036;-61
2022/06/19 04:00:34;;;;;;;11.95;3.00;;;;;;;-142.64;100.00;58178.75;5053447;28;20411;-62
2022/06/19 04:02:59;;;;;;;11.50;2.28;;;;;;;-142.64;100.00;58178.75;5064848;28;20063;-61
2022/06/19 04:05:24;;;;;;;6.40;1.88;;;;;;;-142.64;100.00;58178.75;5056710;28;20029;-61
2022/06/19 04:07:50;;;;;;;9.82;2.30;;;;;;;-142.64;100.00;58178.75;5067753;28;21071;-60
2022/06/19 04:10:18;;;;;;;14.82;3.55;;;;;;;-142.64;100.00;58178.75;5057500;28;20044;-59
2022/06/19 04:12:43;;;;;;;11.60;3.47;;;;;;;-142.64;100.00;58178.75;5071291;28;20039;-58
2022/06/19 04:15:10;;;;;;;5.40;1.98;;;;;;;-142.64;100.00;58178.75;5071288;28;20048;-60
2022/06/19 04:17:36;;;;;;;12.10;2.90;;;;;;;-142.64;100.00;58178.75;5071633;28;20043;-59
2022/06/19 04:20:03;;;;;;;11.35;3.05;;;;;;;-142.64;100.00;58178.75;5073052;28;20029;-60
2022/06/19 04:22:28;;;;;;;12.13;2.30;;;;;;;-142.64;100.00;58178.75;5071524;28;20428;-58
2022/06/19 04:24:54;;;;;;;10.95;3.35;;;;;;;-142.64;100.00;58178.75;5072585;28;20121;-61
2022/06/19 04:27:19;;;;;;;9.25;2.35;;;;;;;-142.64;100.00;58178.75;5072606;28;20119;-59
2022/06/19 04:29:44;;;;;;;12.30;3.17;;;;;;;-142.64;100.00;58178.75;5072610;28;20099;-59
2022/06/19 04:32:10;;;;;;;12.95;3.30;;;;;;;-142.64;100.00;58178.75;5072575;28;20051;-58
2022/06/19 04:34:35;;;;;;;12.93;2.53;;;;;;;-142.64;100.00;58178.75;5071584;28;20041;-59
2022/06/19 04:37:00;;;;;;;11.57;2.50;;;;;;;-142.64;100.00;58178.75;5072300;28;20384;-59
2022/06/19 04:39:25;;;;;;;9.48;2.55;;;;;;;-142.64;100.00;58178.75;5072136;28;20033;-60
2022/06/19 04:41:51;;;;;;;12.10;2.50;;;;;;;-142.64;100.00;58178.75;5071253;28;20032;-58
2022/06/19 04:44:18;;;;;;;11.27;2.75;;;;;;;-142.64;100.00;58178.75;5066758;28;20090;-62
2022/06/19 04:46:44;;;;;;;14.07;2.95;;;;;;;-142.64;100.00;58178.75;5057682;28;20067;-61
2022/06/19 04:49:10;;;;;;;9.23;2.03;;;;;;;-142.64;100.00;58178.75;5068584;28;20467;-60
2022/06/19 04:51:35;;;;;;;10.95;2.50;;;;;;;-142.64;100.00;58178.75;5057232;28;20021;-61
2022/06/19 04:54:01;;;;;;;9.80;2.35;;;;;;;-142.64;100.00;58178.75;5061520;28;20491;-60
2022/06/19 04:56:26;;;;;;;12.52;2.45;;;;;;;-142.64;100.00;58178.75;5063963;28;20422;-60
2022/06/19 04:58:52;;;;;;;9.68;2.42;;;;;;;-142.64;100.00;58178.75;5056161;28;20025;-61
2022/06/19 05:01:23;;;;;;;11.80;3.05;;;;;;;-142.64;100.00;58178.75;5068237;28;20041;-59
2022/06/19 05:03:51;;;;;;;11.13;2.40;;;;;;;-142.64;100.00;58178.75;5057411;28;20024;-59
2022/06/19 05:06:16;;;;;;;11.57;2.28;;;;;;;-142.64;100.00;58178.75;5060575;28;20033;-59
2022/06/19 05:08:41;;;;;;;13.55;2.70;;;;;;;-142.64;100.00;58178.75;5066272;28;20040;-57
2022/06/19 05:11:09;;;;;;;11.55;2.88;;;;;;;-142.64;100.00;58178.75;5055041;28;20530;-60
2022/06/19 05:13:35;;;;;;;11.15;2.83;;;;;;;-142.64;100.00;58178.75;5064163;28;20530;-60
2022/06/19 05:16:09;;;;;;;10.35;2.70;;;;;;;-142.64;100.00;58178.75;5059878;28;20055;-60
2022/06/19 05:18:34;;;;;;;13.95;3.42;;;;;;;-142.64;100.00;58178.75;5058200;28;20434;-58
2022/06/19 05:21:01;;;;;;;9.70;2.40;;;;;;;-142.64;100.00;58178.75;5066809;28;20044;-59
2022/06/19 05:23:37;;;;;;;7.90;2.65;;;;;;;-142.64;100.00;58178.75;5055597;28;20075;-59
2022/06/19 05:26:09;;;;;;;10.75;2.60;;;;;;;-142.64;100.00;58178.75;5062360;28;20064;-60
2022/06/19 05:28:35;;;;;;;9.75;2.40;;;;;;;-142.64;100.00;58178.75;5064029;28;20037;-59
2022/06/19 05:31:02;;;;;;;13.05;3.17;;;;;;;-142.64;100.00;58178.75;5053769;28;20499;-59
2022/06/19 05:33:28;;;;;;;11.70;2.45;;;;;;;-142.64;100.00;58178.75;5065901;28;20124;-60
2022/06/19 05:35:54;;;;;;;10.60;2.60;;;;;;;-142.64;100.00;58178.75;5059022;28;20032;-60
2022/06/19 05:38:20;;;;;;;9.60;2.63;;;;;;;-142.64;100.00;58178.75;5059018;28;20435;-59
2022/06/19 05:40:45;;;;;;;11.65;2.17;;;;;;;-142.64;100.00;58178.75;5066462;28;20036;-60
2022/06/19 05:43:10;;;;;;;11.27;2.92;;;;;;;-142.64;100.00;58178.75;5054965;28;20033;-60
2022/06/19 05:45:36;;;;;;;8.73;2.20;;;;;;;-142.64;100.00;58178.75;5064627;28;20025;-62
2022/06/19 05:48:02;;;;;;;7.07;2.10;;;;;;;-142.64;100.00;58178.75;5060174;28;20058;-59
2022/06/19 05:50:27;;;;;;;15.38;2.95;;;;;;;-142.64;100.00;58178.75;5058826;28;20029;-58
2022/06/19 05:52:53;;;;;;;8.40;2.08;;;;;;;-142.64;100.00;58178.75;5066284;28;20032;-59
2022/06/19 05:55:18;;;;;;;8.40;1.77;;;;;;;-142.64;100.00;58178.75;5055170;28;20086;-59
2022/06/19 05:57:43;;;;;;;10.38;2.40;;;;;;;-142.64;100.00;58178.75;5064730;28;20423;-61
2022/06/19 06:00:09;;;;;;;11.93;3.08;;;;;;;-142.64;100.00;58178.75;5059750;28;20105;-57
2022/06/19 06:02:35;;;;;;;8.52;2.60;;;;;;;-142.64;100.00;58178.75;5057673;28;20029;-60
2022/06/19 06:05:01;;;;;;;10.07;2.42;;;;;;;-142.64;100.00;58178.75;5067545;28;20064;-59
2022/06/19 06:07:27;;;;;;;11.85;2.60;;;;;;;-142.64;100.00;58178.75;5054185;28;20519;-60
2022/06/19 06:09:52;;;;;;;11.52;2.50;;;;;;;-142.64;100.00;58178.75;5062321;28;20057;-60
2022/06/19 06:12:18;;;;;;;9.70;2.22;;;;;;;-142.64;100.00;58178.75;5062286;28;20433;-59
2022/06/19 06:14:43;;;;;;;9.18;2.25;;;;;;;-142.64;100.00;58178.75;5054623;28;20053;-59
2022/06/19 06:17:08;;;;;;;12.32;1.92;;;;;;;-142.64;100.00;58178.75;5067574;28;20040;-60
2022/06/19 06:19:34;;;;;;;10.98;2.72;;;;;;;-142.64;100.00;58178.75;5056096;28;20032;-59
2022/06/19 06:22:03;;;;;;;9.00;1.77;;;;;;;-142.64;100.00;58178.75;5062290;28;20407;-60
2022/06/19 06:24:28;;;;;;;8.80;2.55;;;;;;;-142.64;100.00;58178.75;5063739;28;20032;-59
2022/06/19 06:26:54;;;;;;;9.00;2.58;;;;;;;-142.64;100.00;58178.75;5058561;28;20063;-59
2022/06/19 06:29:20;;;;;;;9.95;2.15;;;;;;;-142.64;100.00;58178.75;5071364;28;20033;-60
2022/06/19 06:31:46;;;;;;;7.90;2.03;;;;;;;-142.64;100.00;58178.75;5061256;28;20028;-60
2022/06/19 06:34:11;;;;;;;10.80;2.65;;;;;;;-142.64;100.00;58178.75;5064076;28;20040;-61
2022/06/19 06:36:37;;;;;;;12.02;2.53;;;;;;;-142.64;100.00;58178.75;5068332;28;20067;-61
2022/06/19 06:39:02;;;;;;;13.23;2.28;;;;;;;-142.64;100.00;58178.75;5057596;28;20395;-61
2022/06/19 06:41:27;;;;;;;12.80;2.80;;;;;;;-142.64;100.00;58178.75;5068797;28;20036;-60
2022/06/19 06:43:53;;;;;;;10.40;2.83;;;;;;;-142.64;100.00;58178.75;5062078;28;20063;-58
2022/06/19 06:46:21;;;;;;;10.10;2.67;;;;;;;-142.64;100.00;58178.75;5063062;28;20120;-59
2022/06/19 06:48:47;;;;;;;13.75;2.97;;;;;;;-142.64;100.00;58178.75;5051083;28;20494;-60
2022/06/19 06:51:15;;;;;;;11.48;3.03;;;;;;;-142.64;100.00;58178.75;5057829;28;20035;-59
2022/06/19 06:53:40;;;;;;;15.15;3.03;;;;;;;-142.64;100.00;58178.75;5066673;28;20079;-59
2022/06/19 06:56:06;;;;;;;11.35;3.25;;;;;;;-142.64;100.00;58178.75;5062125;28;20032;-59
2022/06/19 06:58:32;;;;;;;12.48;2.85;;;;;;;-142.64;100.00;58178.75;5060868;28;20032;-59
2022/06/19 07:00:57;;;;;;;12.65;2.72;;;;;;;-142.64;100.00;58178.75;5070445;28;20095;-58
2022/06/19 07:03:23;;;;;;;11.68;2.75;;;;;;;-142.64;100.00;58178.75;5057287;28;20492;-60
2022/06/19 07:05:48;;;;;;;16.80;3.67;;;;;;;-142.64;100.00;58178.75;5065587;28;20040;-59
2022/06/19 07:08:13;;;;;;;14.55;3.40;;;;;;;-142.64;100.00;58178.75;5064459;28;20032;-59
2022/06/19 07:10:39;;;;;;;14.57;2.92;;;;;;;-142.64;100.00;58178.75;5058564;28;20037;-61
2022/06/19 07:13:04;;;;;;;18.88;3.38;;;;;;;-142.64;100.00;58178.75;5070192;28;20072;-59
2022/06/19 07:15:29;;;;;;;15.02;3.10;;;;;;;-142.64;100.00;58178.75;5056380;28;20044;-62
2022/06/19 07:17:55;;;;;;;17.08;3.42;;;;;;;-142.64;100.00;58178.75;5065540;28;20083;-59
2022/06/19 07:20:20;;;;;;;15.38;3.38;;;;;;;-142.64;100.00;58178.75;5065059;28;20044;-59
2022/06/19 07:22:45;;;;;;;13.45;2.60;;;;;;;-142.64;100.00;58178.75;5058699;28;20041;-60
2022/06/19 07:25:16;;;;;;;13.43;3.25;;;;;;;-142.64;100.00;58178.75;5068818;28;20090;-59
2022/06/19 07:27:41;;;;;;;14.48;3.10;;;;;;;-142.64;100.00;58178.75;5059730;28;20028;-58
2022/06/19 07:30:08;;;;;;;15.82;3.20;;;;;;;-142.64;100.00;58178.75;5063724;28;20491;-59
2022/06/19 07:32:33;;;;;;;11.15;2.88;;;;;;;-142.64;100.00;58178.75;5065198;28;20036;-60
2022/06/19 07:34:58;;;;;;;10.80;2.70;;;;;;;-142.64;100.00;58178.75;5055298;28;20029;-60
2022/06/19 07:37:24;;;;;;;12.32;2.80;;;;;;;-142.64;100.00;58178.75;5067540;28;20091;-60
2022/06/19 07:39:49;;;;;;;13.70;2.47;;;;;;;-142.64;100.00;58178.75;5060286;28;20484;-60
2022/06/19 07:42:15;;;;;;;16.67;3.42;;;;;;;-142.64;100.00;58178.75;5044582;28;20040;-61
2022/06/19 07:44:40;;;;;;;12.15;2.85;;;;;;;-142.64;100.00;58178.75;5067305;28;20399;-59
2022/06/19 07:50:10;;;;;;;12.70;3.33;;;;;;;-142.64;100.00;58178.75;5065604;28;20044;-61
2022/06/19 07:52:47;;;;;;;10.75;3.45;;;;;;;-142.64;100.00;58178.75;5065526;28;20119;-63
2022/06/19 07:55:16;;;;;;;13.00;2.60;;;;;;;-142.64;100.00;58178.75;5054937;28;20617;-61
2022/06/19 07:57:42;;;;;;;13.60;2.95;;;;;;;-142.64;100.00;58178.75;5066591;28;20029;-61
2022/06/19 08:00:17;;;;;;;13.23;3.05;;;;;;;-142.64;100.00;58178.75;5062623;28;20290;-59
2022/06/19 08:02:46;;;;;;;9.90;2.58;;;;;;;-142.64;100.00;58178.75;5056938;28;20025;-60
2022/06/19 08:05:12;;;;;;;15.95;2.92;;;;;;;-142.64;100.00;58178.75;5054762;28;20033;-58
2022/06/19 08:07:38;;;;;;;14.57;3.22;;;;;;;-142.64;100.00;58178.75;5065882;28;20161;-59
2022/06/19 08:10:05;;;;;;;14.68;2.83;;;;;;;-142.64;100.00;58178.75;5061921;28;20040;-61
2022/06/19 08:12:30;;;;;;;9.38;2.30;;;;;;;-142.64;100.00;58178.75;5059896;28;20052;-60
2022/06/19 08:14:56;;;;;;;13.50;2.63;;;;;;;-142.64;100.00;58178.75;5068509;28;20508;-60
2022/06/19 08:17:22;;;;;;;12.70;2.63;;;;;;;-142.64;100.00;58178.75;5056146;28;20471;-60
2022/06/19 08:19:47;;;;;;;12.48;2.53;;;;;;;-142.64;100.00;58178.75;5064421;28;20024;-60
2022/06/19 08:22:12;;;;;;;10.43;2.28;;;;;;;-142.64;100.00;58178.75;5062528;28;20512;-60
2022/06/19 08:24:38;;;;;;;10.57;2.72;;;;;;;-142.64;100.00;58178.75;5058374;28;20033;-61
2022/06/19 08:27:06;;;;;;;16.17;2.97;;;;;;;-142.64;100.00;58178.75;5068943;28;20170;-61
2022/06/19 08:29:33;;;;;;;16.80;3.35;;;;;;;-142.64;100.00;58178.75;5057664;28;20040;-58
2022/06/19 08:31:58;;;;;;;10.13;2.80;;;;;;;-142.64;100.00;58178.75;5064288;28;20619;-61
2022/06/19 08:34:24;;;;;;;10.30;3.75;;;;;;;-142.64;100.00;58178.75;5064472;28;20036;-58
2022/06/19 08:36:49;;;;;;;8.07;3.35;;;;;;;-142.64;100.00;58178.75;5056795;28;20121;-57
2022/06/19 08:39:16;;;;;;;10.70;4.13;;;;;;;-142.64;100.00;58178.75;5068799;28;20029;-60
2022/06/19 08:42:00;;;;;;;11.68;3.92;;;;;;;-142.64;100.00;58178.75;5066391;28;20035;-58
2022/06/19 08:44:57;;;;;;;12.10;4.80;;;;;;;-142.64;100.00;58178.75;5064320;28;20037;-60
2022/06/19 08:47:33;;;;;;;9.07;4.07;;;;;;;-142.64;100.00;58178.75;5047066;28;20043;-59
2022/06/19 08:50:05;;;;;;;10.18;3.90;;;;;;;-142.64;100.00;58178.75;5063889;28;20036;-59
2022/06/19 08:52:59;;;;;;;11.23;5.13;;;;;;;-142.64;100.00;58178.75;5062533;28;20479;-60
2022/06/19 08:56:06;;;;;;;12.13;4.45;;;;;;;-142.64;100.00;58178.75;5054694;28;20115;-59
2022/06/19 08:58:34;;;;;;;11.88;5.10;;;;;;;-142.64;100.00;58178.75;5057978;28;20024;-62
2022/06/19 09:01:15;;;;;;;12.27;5.43;;;;;;;-142.64;100.00;58178.75;5068669;28;20383;-59
2022/06/19 09:06:38;;;;;;;14.73;4.88;;;;;;;-142.64;100.00;58178.75;5057423;28;20086;-58
2022/06/19 09:09:16;;;;;;;9.30;2.83;;;;;;;-142.64;100.00;58178.75;5068548;28;20052;-58
2022/06/19 09:12:01;;;;;;;13.15;3.67;;;;;;;-142.64;100.00;58178.75;5056836;28;20066;-60
2022/06/19 09:14:37;;;;;;;14.70;3.95;;;;;;;-142.64;100.00;58178.75;5058257;28;20058;-60
2022/06/19 09:17:11;;;;;;;14.68;4.00;;;;;;;-142.64;100.00;58178.75;5068425;28;20387;-59
2022/06/19 09:19:49;;;;;;;12.73;4.20;;;;;;;-142.64;100.00;58178.75;5056356;28;20052;-59
2022/06/19 09:22:14;;;;;;;11.95;3.28;;;;;;;-142.64;100.00;58178.75;5061389;28;20035;-58
2022/06/19 09:24:45;;;;;;;10.75;2.97;;;;;;;-142.64;100.00;58178.75;5065836;28;20032;-61
2022/06/19 09:27:12;;;;;;;7.45;2.65;;;;;;;-142.64;100.00;58178.75;5054919;28;20033;-58
2022/06/19 09:29:57;;;;;;;6.78;2.45;;;;;;;-142.64;100.00;58178.75;5065267;28;20033;-59
2022/06/19 09:32:29;;;;;;;9.25;2.85;;;;;;;-142.64;100.00;58178.75;5063531;28;20044;-60
2022/06/19 09:34:56;;;;;;;7.70;2.45;;;;;;;-142.64;100.00;58178.75;5054426;28;20098;-61
2022/06/19 09:37:25;;;;;;;6.07;2.13;;;;;;;-142.64;100.00;58178.75;5068185;28;20043;-60
2022/06/19 09:40:03;;;;;;;7.72;2.55;;;;;;;-142.64;100.00;58178.75;5059145;28;20036;-56
2022/06/19 09:42:43;;;;;;;8.88;4.03;;;;;;;-142.64;100.00;58178.75;5057721;28;20071;-58
2022/06/19 09:45:17;;;;;;;7.10;3.75;;;;;;;-142.64;100.00;58178.75;5066779;28;20024;-59
2022/06/19 09:47:51;;;;;;;9.30;3.55;;;;;;;-142.64;100.00;58178.75;5057506;28;20036;-58
2022/06/19 09:50:29;;;;;;;7.25;3.00;;;;;;;-142.64;100.00;58178.75;5060603;28;20021;-59
2022/06/19 09:53:04;;;;;;;5.80;2.55;;;;;;;-142.64;100.00;58178.75;5067742;28;20031;-62
2022/06/19 09:55:36;;;;;;;8.77;2.50;;;;;;;-142.64;100.00;58178.75;5039288;28;20025;-59
2022/06/19 09:58:14;;;;;;;6.13;2.25;;;;;;;-142.64;100.00;58178.75;5061203;28;20024;-55
2022/06/19 10:00:42;;;;;;;4.22;1.52;;;;;;;-142.64;100.00;58178.75;5067751;28;20025;-58
2022/06/19 10:03:18;;;;;;;5.07;1.98;;;;;;;-142.64;100.00;58178.75;5057740;28;20029;-55
2022/06/19 10:05:54;;;;;;;5.15;1.70;;;;;;;-142.64;100.00;58178.75;5069010;28;20029;-58
2022/06/19 10:08:38;;;;;;;4.35;1.48;;;;;;;-142.64;100.00;58178.75;5066553;28;20493;-59
2022/06/19 10:11:09;;;;;;;4.18;1.35;;;;;;;-142.64;100.00;58178.75;5057216;28;20388;-59
2022/06/19 10:13:52;;;;;;;3.55;1.60;;;;;;;-142.64;100.00;58178.75;5070096;28;20021;-59
2022/06/19 10:16:20;;;;;;;2.83;1.38;;;;;;;-142.64;100.00;58178.75;5064729;28;20051;-59
2022/06/19 10:18:51;;;;;;;4.50;1.85;;;;;;;-142.64;100.00;58178.75;5060133;28;20123;-57
2022/06/19 10:24:25;;;;;;;6.03;1.25;;;;;;;-142.64;100.00;58178.75;5064753;28;20043;-59
2022/06/19 10:27:03;;;;;;;4.28;1.30;;;;;;;-142.64;100.00;58178.75;5058204;28;20025;-59
2022/06/19 10:29:40;;;;;;;3.80;1.38;;;;;;;-142.64;100.00;58178.75;5042375;28;20051;-58
2022/06/19 10:32:15;;;;;;;3.65;1.58;;;;;;;-142.64;100.00;58178.75;5065163;28;20088;-58
2022/06/19 10:34:51;;;;;;;6.68;1.80;;;;;;;-142.64;100.00;58178.75;5068845;28;20033;-58
2022/06/19 10:37:35;;;;;;;8.88;1.73;;;;;;;-142.64;100.00;58178.75;5056697;28;20385;-57
2022/06/19 10:40:12;;;;;;;3.50;1.58;;;;;;;-142.64;100.00;58178.75;5073467;28;20040;-58
2022/06/19 10:42:59;;;;;;;3.15;1.30;;;;;;;-142.64;100.00;58178.75;5060706;28;20025;-59
2022/06/19 10:45:46;;;;;;;2.47;1.13;;;;;;;-142.64;100.00;58178.75;5042343;28;20048;-58
2022/06/19 10:48:36;;;;;;;4.28;1.65;;;;;;;-142.64;100.00;58178.75;5064842;28;20039;-58
2022/06/19 10:51:20;;;;;;;4.38;1.30;;;;;;;-142.64;100.00;58178.75;5070845;28;20032;-57
2022/06/19 10:53:55;;;;;;;8.63;1.83;;;;;;;-142.64;100.00;58178.75;5060786;28;20021;-59
2022/06/19 10:56:57;;;;;;;4.10;1.10;;;;;;;-142.64;100.00;58178.75;5062603;28;20033;-54
2022/06/19 10:59:23;;;;;;;3.85;1.20;;;;;;;-142.64;100.00;58178.75;5070698;28;20121;-58
2022/06/19 11:05:14;;;;;;;2.92;1.17;;;;;;;-142.64;100.00;58178.75;5054952;28;20067;-60
2022/06/19 11:07:40;;;;;;;5.28;1.42;;;;;;;-142.64;100.00;58178.75;5065953;28;20048;-58
2022/06/19 11:10:13;;;;;;;3.30;1.10;;;;;;;-142.64;100.00;58178.75;5061451;28;20127;-60
2022/06/19 11:12:45;;;;;;;6.65;1.70;;;;;;;-142.64;100.00;58178.75;5058140;28;20112;-58
2022/06/19 11:15:18;;;;;;;6.05;1.40;;;;;;;-142.64;100.00;58178.75;5068909;28;20049;-55
2022/06/19 11:17:43;;;;;;;2.20;1.15;;;;;;;-142.64;100.00;58178.75;5060143;28;20090;-58
2022/06/19 11:20:27;;;;;;;3.75;1.15;;;;;;;-142.64;100.00;58178.75;5062841;28;20037;-60
2022/06/19 11:23:22;;;;;;;3.75;1.38;;;;;;;-142.64;100.00;58178.75;5068178;28;20497;-57
2022/06/19 11:25:59;;;;;;;1.73;1.15;;;;;;;-142.64;100.00;58178.75;5047429;28;20035;-56
2022/06/19 11:28:57;;;;;;;5.15;1.42;;;;;;;-142.64;100.00;58178.75;5061913;28;20021;-56